Time;durP1;ratioP1;P1;durP2;ratioP2;P2;SDS_P1;SDS_P2;PMS_P1;PMS_P2;Temp;Humidity;BMP_temperature;BMP_pressure;BME280_temperature;BME280_humidity;BME280_pressure;Samples;Min_cycle;Max_cycle;Signal;HPM_P1;HPM_P2
2023/03/31 00:02:20;;;;;;;13.25;5.75;;;;;;;1.17;100.00;97398.63;5139042;28;20463;-65
2023/03/31 00:04:51;;;;;;;9.77;4.53;;;;;;;1.07;100.00;97389.09;5138957;27;20051;-66
2023/03/31 00:07:20;;;;;;;8.15;4.00;;;;;;;1.00;100.00;97390.81;5138700;28;20417;-63
2023/03/31 00:09:47;;;;;;;10.93;4.28;;;;;;;1.09;100.00;97370.63;5138949;28;20051;-63
2023/03/31 00:12:15;;;;;;;10.95;5.28;;;;;;;1.23;100.00;97374.84;5138771;28;20050;-66
2023/03/31 00:14:41;;;;;;;9.27;4.28;;;;;;;1.13;100.00;97373.41;5139034;28;20084;-66
2023/03/31 00:17:08;;;;;;;11.32;4.40;;;;;;;1.39;100.00;97394.53;5138548;28;20130;-66
2023/03/31 00:19:34;;;;;;;11.60;5.03;;;;;;;1.40;100.00;97398.81;5139406;28;20073;-63
2023/03/31 00:22:01;;;;;;;7.75;4.00;;;;;;;1.47;100.00;97385.50;5139927;28;20074;-62
2023/03/31 00:24:27;;;;;;;9.25;4.35;;;;;;;1.58;100.00;97373.03;5139540;28;20058;-67
2023/03/31 00:26:54;;;;;;;6.90;4.10;;;;;;;1.16;100.00;97383.53;5138394;28;20328;-65
2023/03/31 00:29:20;;;;;;;8.35;3.88;;;;;;;1.68;100.00;97377.13;5138519;28;20043;-64
2023/03/31 00:31:47;;;;;;;11.80;4.22;;;;;;;1.78;100.00;97406.31;5138388;28;20086;-67
2023/03/31 00:34:13;;;;;;;8.05;4.22;;;;;;;1.72;100.00;97367.16;5138026;27;20051;-68
2023/03/31 00:36:44;;;;;;;8.85;3.88;;;;;;;1.49;100.00;97382.44;5138269;27;20503;-67
2023/03/31 00:39:11;;;;;;;7.80;4.30;;;;;;;1.74;100.00;97375.72;5138159;28;20420;-62
2023/03/31 00:41:39;;;;;;;8.93;3.90;;;;;;;1.80;100.00;97379.72;5138490;28;20158;-67
2023/03/31 00:44:11;;;;;;;7.03;4.25;;;;;;;2.01;100.00;97400.28;5138185;28;20050;-67
2023/03/31 00:46:43;;;;;;;9.48;4.15;;;;;;;1.66;100.00;97395.56;5138497;28;20093;-65
2023/03/31 00:49:15;;;;;;;8.45;3.63;;;;;;;1.53;100.00;97416.47;5138003;28;20149;-65
2023/03/31 00:51:42;;;;;;;11.48;4.28;;;;;;;1.65;100.00;97372.41;5138409;28;20080;-65
2023/03/31 00:54:10;;;;;;;5.60;3.95;;;;;;;1.86;100.00;97391.81;5137954;28;20047;-67
2023/03/31 00:56:39;;;;;;;7.18;3.83;;;;;;;1.76;100.00;97415.88;5138158;28;20074;-67
2023/03/31 00:59:10;;;;;;;10.95;4.32;;;;;;;1.92;100.00;97418.59;5138182;28;20373;-67
2023/03/31 01:01:41;;;;;;;7.82;4.10;;;;;;;1.82;100.00;97420.69;5137804;28;20137;-62
2023/03/31 01:04:08;;;;;;;7.60;4.13;;;;;;;1.81;100.00;97415.63;5138297;28;20082;-63
2023/03/31 01:06:41;;;;;;;10.32;4.55;;;;;;;1.59;100.00;97417.00;5137803;27;20055;-62
2023/03/31 01:09:07;;;;;;;12.32;4.85;;;;;;;1.71;100.00;97398.03;5138098;28;20079;-63
2023/03/31 01:11:34;;;;;;;7.93;4.20;;;;;;;1.69;100.00;97413.78;5137723;28;20062;-66
2023/03/31 01:14:02;;;;;;;9.57;4.35;;;;;;;1.91;100.00;97422.44;5138027;28;20396;-68
2023/03/31 01:16:28;;;;;;;14.50;6.22;;;;;;;1.50;100.00;97419.09;5137541;28;20051;-63
2023/03/31 01:18:56;;;;;;;21.05;6.20;;;;;;;1.68;100.00;97398.72;5138098;28;20083;-63
2023/03/31 01:22:05;;;;;;;13.73;5.13;;;;;;;2.15;100.00;97407.91;5137820;28;20050;-67
2023/03/31 01:25:02;;;;;;;13.18;5.28;;;;;;;2.27;100.00;97435.63;5035249;28;20068;-62
2023/03/31 01:28:13;;;;;;;20.95;5.82;;;;;;;2.17;100.00;97411.84;5034936;28;20144;-67
2023/03/31 01:31:07;;;;;;;16.30;5.60;;;;;;;2.26;100.00;97417.03;5034847;28;20103;-68
2023/03/31 01:34:11;;;;;;;18.77;6.22;;;;;;;2.22;100.00;97408.84;5034879;28;20056;-65
2023/03/31 01:37:06;;;;;;;17.70;6.85;;;;;;;2.08;100.00;97395.03;5034772;28;20055;-62
2023/03/31 01:40:09;;;;;;;43.05;15.05;;;;;;;2.08;100.00;97387.69;5034727;28;20144;-64
2023/03/31 01:42:36;;;;;;;26.73;8.80;;;;;;;2.09;100.00;97377.66;5034934;28;20050;-63
2023/03/31 01:45:15;;;;;;;24.00;9.23;;;;;;;2.12;100.00;97375.03;5037290;28;20056;-63
2023/03/31 01:47:46;;;;;;;23.80;9.40;;;;;;;2.06;100.00;97371.03;5041397;28;20053;-62
2023/03/31 01:50:22;;;;;;;21.55;7.22;;;;;;;2.01;100.00;97344.28;5041224;28;20049;-63
2023/03/31 01:52:56;;;;;;;15.85;7.25;;;;;;;2.00;100.00;97337.31;5041241;28;20149;-67
2023/03/31 01:55:26;;;;;;;11.52;5.53;;;;;;;1.63;100.00;97332.25;5100748;27;20055;-65
2023/03/31 01:57:56;;;;;;;10.20;3.58;;;;;;;1.87;100.00;97314.25;5144188;27;20396;-65
2023/03/31 02:00:28;;;;;;;5.43;3.75;;;;;;;1.86;100.00;97318.06;5144045;27;20327;-66
2023/03/31 02:02:58;;;;;;;9.88;3.80;;;;;;;1.97;100.00;97307.53;5144342;27;20073;-65
2023/03/31 02:05:29;;;;;;;7.00;3.45;;;;;;;1.90;100.00;97300.03;5143833;27;20078;-65
2023/03/31 02:07:59;;;;;;;8.98;3.92;;;;;;;1.86;100.00;97289.13;5144416;27;20381;-63
2023/03/31 02:10:29;;;;;;;5.53;3.67;;;;;;;1.58;100.00;97275.78;5143693;27;20133;-67
2023/03/31 02:12:57;;;;;;;6.78;3.33;;;;;;;1.29;100.00;97260.06;5143930;27;20047;-67
2023/03/31 02:15:30;;;;;;;8.00;3.75;;;;;;;1.79;100.00;97253.84;5143818;27;20051;-62
2023/03/31 02:17:59;;;;;;;8.40;3.55;;;;;;;1.85;100.00;97236.25;5143956;27;20355;-65
2023/03/31 02:20:28;;;;;;;12.10;3.85;;;;;;;1.51;100.00;97245.16;5144015;27;20108;-63
2023/03/31 02:22:55;;;;;;;10.05;4.22;;;;;;;1.72;100.00;97224.00;5143799;27;20422;-62
2023/03/31 02:25:25;;;;;;;7.28;3.63;;;;;;;1.79;100.00;97216.03;5143863;27;20103;-66
2023/03/31 02:27:57;;;;;;;8.45;3.35;;;;;;;1.73;100.00;97217.44;5143667;27;20051;-63
2023/03/31 02:30:29;;;;;;;4.72;3.17;;;;;;;1.68;100.00;97215.03;5143985;27;20138;-67
2023/03/31 02:32:56;;;;;;;5.03;2.90;;;;;;;1.57;100.00;97216.75;5143477;27;20053;-66
2023/03/31 02:35:24;;;;;;;8.40;3.30;;;;;;;1.77;100.00;97191.31;5143389;27;20047;-64
2023/03/31 02:37:50;;;;;;;11.80;3.08;;;;;;;1.80;100.00;97203.31;5143748;27;20382;-67
2023/03/31 02:40:19;;;;;;;5.68;3.13;;;;;;;1.82;100.00;97182.13;5143596;27;20061;-65
2023/03/31 02:42:45;;;;;;;6.57;3.53;;;;;;;1.53;100.00;97186.16;5143709;27;20371;-66
2023/03/31 02:45:38;;;;;;;4.78;3.10;;;;;;;1.18;100.00;97170.75;5143488;27;20047;-63
2023/03/31 02:48:06;;;;;;;5.90;3.35;;;;;;;1.37;100.00;97157.31;5143750;27;20047;-67
2023/03/31 02:50:53;;;;;;;6.95;3.35;;;;;;;1.41;100.00;97152.75;5143352;27;20058;-62
2023/03/31 02:53:28;;;;;;;9.20;3.75;;;;;;;1.74;100.00;97150.72;5143478;27;20061;-62
2023/03/31 02:56:05;;;;;;;6.50;3.50;;;;;;;1.71;100.00;97146.03;5142829;27;20319;-65
2023/03/31 02:58:47;;;;;;;5.95;3.28;;;;;;;1.22;100.00;97144.63;5139745;28;20443;-67
2023/03/31 03:01:33;;;;;;;4.80;3.30;;;;;;;1.69;100.00;97134.78;5140134;28;20047;-62
2023/03/31 03:04:16;;;;;;;6.90;3.00;;;;;;;1.58;100.00;97127.25;5139760;28;20051;-63
2023/03/31 03:06:52;;;;;;;6.82;3.33;;;;;;;1.34;100.00;97136.41;5140064;27;20050;-62
2023/03/31 03:09:31;;;;;;;6.32;3.45;;;;;;;1.77;100.00;97133.81;5139884;28;20381;-62
2023/03/31 03:12:07;;;;;;;21.05;3.90;;;;;;;1.64;100.00;97120.44;5139827;28;20073;-63
2023/03/31 03:14:38;;;;;;;6.20;3.45;;;;;;;1.63;100.00;97118.06;5139996;28;20051;-66
2023/03/31 03:17:09;;;;;;;6.97;3.10;;;;;;;1.75;100.00;97133.38;5139516;28;20431;-68
2023/03/31 03:19:35;;;;;;;5.63;3.28;;;;;;;1.68;100.00;97122.41;5139896;28;20050;-65
2023/03/31 03:22:01;;;;;;;14.48;4.05;;;;;;;1.83;100.00;97114.25;5139750;28;20055;-66
2023/03/31 03:24:28;;;;;;;4.45;2.95;;;;;;;1.69;100.00;97113.94;5139831;28;20066;-69
2023/03/31 03:26:54;;;;;;;8.00;3.53;;;;;;;1.94;100.00;97108.25;5139343;28;20435;-64
2023/03/31 03:29:20;;;;;;;7.38;3.20;;;;;;;1.83;100.00;97118.84;5139514;28;20051;-62
2023/03/31 03:31:46;;;;;;;6.25;3.50;;;;;;;1.57;100.00;97122.22;5139337;28;20557;-65
2023/03/31 03:34:13;;;;;;;6.13;3.35;;;;;;;1.65;100.00;97113.09;5139172;28;20051;-64
2023/03/31 03:36:39;;;;;;;6.88;3.75;;;;;;;1.76;100.00;97107.91;5139524;27;20057;-67
2023/03/31 03:39:06;;;;;;;9.32;3.70;;;;;;;1.59;100.00;97109.91;5139573;28;20054;-65
2023/03/31 03:41:32;;;;;;;6.10;3.42;;;;;;;1.77;100.00;97096.75;5139363;28;20047;-62
2023/03/31 03:43:58;;;;;;;6.63;3.85;;;;;;;1.56;100.00;97099.81;5139111;28;20047;-62
2023/03/31 03:46:24;;;;;;;8.55;3.15;;;;;;;1.69;100.00;97081.53;5139499;28;20043;-66
2023/03/31 03:48:50;;;;;;;6.70;4.25;;;;;;;1.83;100.00;97078.31;5139559;28;20275;-66
2023/03/31 03:51:17;;;;;;;6.18;4.00;;;;;;;1.69;100.00;97069.94;5141783;28;20468;-61
2023/03/31 03:53:43;;;;;;;9.30;3.97;;;;;;;1.57;100.00;97066.28;5140730;28;20412;-63
2023/03/31 03:56:09;;;;;;;6.63;3.83;;;;;;;1.87;100.00;97062.97;5139312;28;20062;-62
2023/03/31 03:58:35;;;;;;;9.80;4.20;;;;;;;1.72;100.00;97064.63;5139063;28;20057;-62
2023/03/31 04:01:01;;;;;;;6.30;3.58;;;;;;;1.96;100.00;97057.31;5138798;28;20401;-67
2023/03/31 04:03:27;;;;;;;11.32;4.30;;;;;;;2.01;100.00;97063.22;5139126;28;20112;-66
2023/03/31 04:05:53;;;;;;;6.38;3.83;;;;;;;2.07;100.00;97056.38;5138906;27;20079;-65
2023/03/31 04:08:19;;;;;;;5.95;3.70;;;;;;;2.08;100.00;97065.25;5138427;27;20053;-63
2023/03/31 04:10:47;;;;;;;5.70;3.42;;;;;;;1.85;100.00;97049.03;5138713;28;20080;-65
2023/03/31 04:13:13;;;;;;;7.03;3.88;;;;;;;1.96;100.00;97052.69;5138626;28;20427;-64
2023/03/31 04:15:39;;;;;;;7.07;3.03;;;;;;;2.15;100.00;97043.75;5138571;28;20431;-62
2023/03/31 04:18:05;;;;;;;5.97;2.90;;;;;;;2.02;100.00;97045.06;5138978;28;20079;-62
2023/03/31 04:20:31;;;;;;;7.32;3.75;;;;;;;2.24;100.00;97041.59;5138503;28;20055;-62
2023/03/31 04:22:57;;;;;;;8.82;3.28;;;;;;;2.07;100.00;97052.91;5138900;28;20150;-65
2023/03/31 04:25:24;;;;;;;6.28;3.47;;;;;;;2.15;100.00;97054.56;5138636;28;20089;-67
2023/03/31 04:27:53;;;;;;;7.22;2.92;;;;;;;1.98;100.00;97045.00;5138351;28;20187;-67
2023/03/31 04:30:23;;;;;;;6.38;3.33;;;;;;;2.36;100.00;97046.78;5138540;28;20062;-63
2023/03/31 04:32:52;;;;;;;5.47;3.08;;;;;;;2.30;100.00;97048.25;5138475;28;20061;-62
2023/03/31 04:35:19;;;;;;;8.00;3.65;;;;;;;2.28;100.00;97042.44;5138528;27;20078;-62
2023/03/31 04:37:46;;;;;;;4.72;3.00;;;;;;;2.40;100.00;97052.28;5138247;28;20421;-63
2023/03/31 04:40:12;;;;;;;6.55;3.22;;;;;;;2.47;100.00;97060.50;5138458;28;20051;-63
2023/03/31 04:42:38;;;;;;;9.32;3.35;;;;;;;2.52;100.00;97060.19;5138169;28;20339;-68
2023/03/31 04:45:05;;;;;;;7.47;3.47;;;;;;;2.10;100.00;97058.38;5138346;28;20054;-67
2023/03/31 04:47:31;;;;;;;4.30;3.42;;;;;;;2.43;100.00;97050.75;5137870;28;20051;-67
2023/03/31 04:49:57;;;;;;;6.55;3.70;;;;;;;2.38;100.00;97051.06;5138355;28;20051;-68
2023/03/31 04:52:23;;;;;;;5.88;2.90;;;;;;;2.41;100.00;97047.66;5137919;28;20150;-66
2023/03/31 04:54:49;;;;;;;8.15;3.30;;;;;;;2.45;100.00;97054.66;5138050;28;20391;-64
2023/03/31 04:57:15;;;;;;;4.75;2.75;;;;;;;2.19;100.00;97044.59;5137798;28;20051;-62
2023/03/31 04:59:41;;;;;;;10.70;3.42;;;;;;;2.51;100.00;97038.91;5137929;28;20142;-63
2023/03/31 05:02:07;;;;;;;10.70;3.45;;;;;;;2.26;100.00;97047.41;5137922;28;20357;-60
2023/03/31 05:04:33;;;;;;;10.05;3.35;;;;;;;2.67;100.00;97047.66;5137763;27;20180;-64
2023/03/31 05:06:59;;;;;;;6.90;3.47;;;;;;;2.71;100.00;97037.66;5137975;28;20194;-61
2023/03/31 05:09:25;;;;;;;5.00;3.08;;;;;;;2.79;100.00;97047.44;5137676;28;20106;-62
2023/03/31 05:11:51;;;;;;;6.43;3.60;;;;;;;2.93;100.00;97062.31;5137855;28;20070;-65
2023/03/31 05:14:17;;;;;;;9.18;3.90;;;;;;;2.86;100.00;97048.69;5137731;28;20043;-67
2023/03/31 05:16:43;;;;;;;7.15;3.10;;;;;;;2.76;100.00;97055.50;5137829;28;20043;-70
2023/03/31 05:19:09;;;;;;;8.82;3.50;;;;;;;2.38;100.00;97027.50;5136619;27;20137;-68
2023/03/31 05:21:37;;;;;;;7.38;4.32;;;;;;;2.21;100.00;97012.56;5137748;28;20107;-69
2023/03/31 05:24:03;;;;;;;7.25;3.50;;;;;;;2.63;100.00;96998.13;5137269;28;20420;-63
2023/03/31 05:26:29;;;;;;;7.25;4.13;;;;;;;2.48;100.00;97007.97;5137325;28;20051;-66
2023/03/31 05:28:55;;;;;;;5.70;3.25;;;;;;;2.40;100.00;97000.09;5137308;28;20374;-64
2023/03/31 05:31:22;;;;;;;9.50;3.72;;;;;;;2.49;100.00;96984.41;5137165;28;20342;-64
2023/03/31 05:33:48;;;;;;;4.78;3.13;;;;;;;2.54;100.00;96995.69;5137371;28;20134;-62
2023/03/31 05:36:16;;;;;;;5.60;3.47;;;;;;;2.33;100.00;96998.88;5136843;27;20492;-61
2023/03/31 05:38:43;;;;;;;16.63;6.90;;;;;;;2.46;100.00;97001.34;5137217;28;20372;-68
2023/03/31 05:41:10;;;;;;;13.15;6.32;;;;;;;2.56;100.00;96992.59;5136886;28;20142;-62
2023/03/31 05:43:37;;;;;;;10.18;5.40;;;;;;;2.75;100.00;96997.13;5137492;28;20130;-63
2023/03/31 05:46:03;;;;;;;14.65;4.65;;;;;;;2.85;100.00;96993.00;5136991;28;20061;-60
2023/03/31 05:48:29;;;;;;;37.25;15.02;;;;;;;2.89;100.00;97010.84;5137352;28;20089;-63
2023/03/31 05:50:57;;;;;;;48.70;17.63;;;;;;;2.85;100.00;97009.25;5136762;28;20491;-62
2023/03/31 05:53:23;;;;;;;9.23;5.22;;;;;;;2.80;100.00;97004.94;5137145;28;20051;-64
2023/03/31 05:55:49;;;;;;;25.15;12.57;;;;;;;2.96;100.00;97004.75;5136882;28;20127;-70
2023/03/31 05:58:15;;;;;;;41.30;18.58;;;;;;;3.16;100.00;97008.09;5136893;28;20088;-68
2023/03/31 06:00:43;;;;;;;29.02;15.27;;;;;;;3.21;100.00;97027.50;5136983;28;20090;-69
2023/03/31 06:03:09;;;;;;;13.27;6.47;;;;;;;3.06;100.00;97023.81;5137078;28;20051;-67
2023/03/31 06:05:35;;;;;;;10.90;6.30;;;;;;;2.76;100.00;97001.38;5137072;27;20047;-66
2023/03/31 06:08:02;;;;;;;9.48;4.90;;;;;;;2.87;100.00;96994.22;5136882;28;20145;-64
2023/03/31 06:10:28;;;;;;;15.15;8.07;;;;;;;3.11;100.00;96995.66;5137329;28;20145;-66
2023/03/31 06:12:54;;;;;;;9.55;4.90;;;;;;;3.30;100.00;96995.50;5136838;28;20066;-64
2023/03/31 06:15:20;;;;;;;8.57;4.88;;;;;;;3.18;100.00;97003.09;5137017;28;20146;-64
2023/03/31 06:17:46;;;;;;;11.88;5.22;;;;;;;3.29;100.00;96999.34;5136593;28;20067;-64
2023/03/31 06:20:12;;;;;;;13.05;4.88;;;;;;;3.10;100.00;96991.41;5136984;28;20138;-68
2023/03/31 06:22:38;;;;;;;8.45;3.97;;;;;;;3.12;100.00;96997.22;5137024;28;20110;-67
2023/03/31 06:25:05;;;;;;;12.45;4.75;;;;;;;3.06;100.00;96994.03;5137105;28;20063;-70
2023/03/31 06:27:31;;;;;;;11.90;4.13;;;;;;;3.03;100.00;96975.84;5136516;28;20154;-69
2023/03/31 06:29:57;;;;;;;11.20;4.38;;;;;;;3.03;100.00;96969.63;5136295;28;20055;-72
2023/03/31 06:32:23;;;;;;;8.00;4.55;;;;;;;3.49;100.00;96972.88;5139785;27;20191;-70
2023/03/31 06:34:49;;;;;;;8.23;4.28;;;;;;;3.50;100.00;96979.88;5140782;27;20476;-65
2023/03/31 06:37:15;;;;;;;10.95;4.22;;;;;;;3.47;100.00;96979.84;5140421;28;20055;-63
2023/03/31 06:39:43;;;;;;;8.52;4.05;;;;;;;3.96;100.00;96997.69;5139970;28;20149;-65
2023/03/31 06:42:10;;;;;;;5.72;3.78;;;;;;;3.70;100.00;96990.50;5140772;28;20134;-71
2023/03/31 06:44:36;;;;;;;12.30;4.82;;;;;;;4.30;100.00;96986.75;5139973;28;20058;-65
2023/03/31 06:47:02;;;;;;;11.93;4.30;;;;;;;4.00;100.00;97031.06;5139766;28;20138;-63
2023/03/31 06:49:27;;;;;;;8.02;4.57;;;;;;;3.57;100.00;96995.41;5139643;28;20111;-64
2023/03/31 06:51:53;;;;;;;9.15;4.70;;;;;;;3.65;100.00;96996.25;5139953;28;20328;-67
2023/03/31 06:54:19;;;;;;;10.07;4.68;;;;;;;3.96;100.00;96981.44;5139958;28;20409;-68
2023/03/31 06:56:45;;;;;;;7.63;4.28;;;;;;;3.38;100.00;96980.13;5139552;28;20192;-71
2023/03/31 06:59:12;;;;;;;5.07;3.95;;;;;;;3.27;100.00;96947.50;5139835;28;20087;-71
2023/03/31 07:01:41;;;;;;;8.80;5.22;;;;;;;3.80;100.00;96951.09;5139644;28;20079;-66
2023/03/31 07:04:07;;;;;;;10.85;4.70;;;;;;;4.11;100.00;96964.16;5139882;28;20051;-66
2023/03/31 07:06:34;;;;;;;10.05;5.07;;;;;;;4.42;100.00;96986.44;5139569;27;20158;-70
2023/03/31 07:09:00;;;;;;;8.23;4.43;;;;;;;3.90;100.00;97000.00;5139957;28;20079;-65
2023/03/31 07:11:26;;;;;;;7.05;4.00;;;;;;;3.68;100.00;96984.69;5139321;28;20073;-66
2023/03/31 07:13:52;;;;;;;7.20;4.13;;;;;;;3.96;100.00;96984.16;5139570;28;20408;-68
2023/03/31 07:16:19;;;;;;;8.73;3.92;;;;;;;4.39;100.00;96984.50;5139222;28;20079;-68
2023/03/31 07:18:45;;;;;;;8.75;4.65;;;;;;;4.63;100.00;97008.31;5142638;28;20070;-68
2023/03/31 07:21:11;;;;;;;9.05;4.40;;;;;;;4.93;100.00;97023.59;5141640;28;20145;-62
2023/03/31 07:23:37;;;;;;;13.07;5.72;;;;;;;5.02;100.00;97044.97;5139641;28;20493;-65
2023/03/31 07:26:03;;;;;;;12.57;6.78;;;;;;;4.47;100.00;97089.22;5139887;28;20391;-70
2023/03/31 07:28:30;;;;;;;9.13;5.03;;;;;;;4.58;100.00;97073.78;5139399;28;20101;-65
2023/03/31 07:30:56;;;;;;;18.50;9.32;;;;;;;4.72;100.00;97033.16;5139508;28;20142;-71
2023/03/31 07:33:22;;;;;;;11.82;5.95;;;;;;;4.87;100.00;97044.13;5139248;28;20054;-69
2023/03/31 07:35:48;;;;;;;12.35;4.78;;;;;;;4.64;100.00;97020.72;5139351;27;20416;-66
2023/03/31 07:38:14;;;;;;;11.25;4.70;;;;;;;4.61;100.00;97032.31;5139182;28;20047;-65
2023/03/31 07:40:42;;;;;;;8.07;5.50;;;;;;;4.47;100.00;96995.03;5139236;28;20051;-64
2023/03/31 07:43:08;;;;;;;14.95;6.07;;;;;;;5.26;100.00;97002.78;5137396;27;20047;-69
2023/03/31 07:45:34;;;;;;;9.70;6.35;;;;;;;4.72;100.00;97021.53;5139094;28;20069;-67
2023/03/31 07:48:00;;;;;;;11.63;4.50;;;;;;;4.96;100.00;96990.25;5138568;28;20043;-67
2023/03/31 07:50:27;;;;;;;12.05;6.55;;;;;;;4.59;100.00;97010.19;5138967;28;20107;-69
2023/03/31 07:52:53;;;;;;;23.35;12.20;;;;;;;5.02;100.00;96987.97;5138426;28;20146;-68
2023/03/31 07:55:19;;;;;;;6.95;4.63;;;;;;;4.70;100.00;96964.94;5138882;28;20054;-67
2023/03/31 07:57:46;;;;;;;13.85;4.72;;;;;;;4.97;100.00;96932.09;5138757;28;20149;-69
2023/03/31 08:00:14;;;;;;;9.57;4.60;;;;;;;4.58;100.00;96929.19;5138651;28;20195;-67
2023/03/31 08:02:41;;;;;;;7.60;4.53;;;;;;;4.37;100.00;96916.28;5138791;28;20462;-64
2023/03/31 08:05:08;;;;;;;7.22;4.50;;;;;;;4.66;100.00;96893.53;5138606;27;20051;-66
2023/03/31 08:07:36;;;;;;;10.38;4.38;;;;;;;4.61;100.00;96898.59;5138972;28;20422;-70
2023/03/31 08:10:04;;;;;;;10.20;5.10;;;;;;;4.75;100.00;96874.19;5138507;28;20405;-66
2023/03/31 08:12:30;;;;;;;9.68;5.05;;;;;;;4.60;100.00;96881.53;5138862;28;20047;-68
2023/03/31 08:14:56;;;;;;;8.75;4.50;;;;;;;4.93;100.00;96871.53;5138243;28;20112;-65
2023/03/31 08:17:21;;;;;;;7.32;4.55;;;;;;;4.90;100.00;96885.91;5138597;28;20063;-64
2023/03/31 08:19:48;;;;;;;7.20;4.28;;;;;;;4.32;100.00;96860.44;5138507;28;20061;-65
2023/03/31 08:22:14;;;;;;;8.30;5.72;;;;;;;4.23;100.00;96871.66;5138427;28;20051;-65
2023/03/31 08:24:40;;;;;;;8.50;5.38;;;;;;;4.14;100.00;96881.28;5138350;28;20456;-68
2023/03/31 08:27:06;;;;;;;15.23;7.75;;;;;;;3.96;100.00;96890.03;5138178;28;20416;-65
2023/03/31 08:29:32;;;;;;;8.98;5.05;;;;;;;3.91;100.00;96931.06;5138345;28;20146;-65
2023/03/31 08:31:58;;;;;;;19.58;8.90;;;;;;;3.93;100.00;96987.59;5138167;28;20416;-72
2023/03/31 08:34:25;;;;;;;25.83;12.35;;;;;;;3.97;100.00;97024.47;5138374;27;20138;-71
2023/03/31 08:36:51;;;;;;;13.52;7.30;;;;;;;4.42;100.00;97092.25;5137573;28;20051;-63
2023/03/31 08:39:17;;;;;;;8.20;4.65;;;;;;;4.01;100.00;97027.19;5138293;28;20074;-67
2023/03/31 08:41:54;;;;;;;15.93;6.28;;;;;;;3.63;100.00;97124.00;5137902;28;20099;-71
2023/03/31 08:44:25;;;;;;;28.13;9.23;;;;;;;3.83;100.00;97156.34;5138130;28;20059;-70
2023/03/31 08:46:54;;;;;;;16.33;7.63;;;;;;;3.38;100.00;97229.28;5137694;28;20357;-71
2023/03/31 08:49:22;;;;;;;20.65;10.80;;;;;;;3.68;100.00;97324.19;5137851;28;20435;-64
2023/03/31 08:51:50;;;;;;;40.55;19.10;;;;;;;3.58;100.00;97399.91;5138310;28;20146;-67
2023/03/31 08:54:19;;;;;;;14.38;6.43;;;;;;;4.13;100.00;97500.72;5137962;27;20134;-69
2023/03/31 08:56:49;;;;;;;14.93;8.15;;;;;;;3.52;100.00;97510.50;5138186;28;20345;-70
2023/03/31 08:59:20;;;;;;;11.88;6.50;;;;;;;3.43;100.00;97635.34;5137672;28;20133;-63
2023/03/31 09:01:54;;;;;;;41.45;16.05;;;;;;;3.75;100.00;97692.13;5137671;28;20142;-64
2023/03/31 09:04:43;;;;;;;14.23;6.43;;;;;;;4.30;100.00;97766.09;5137957;28;20047;-69
2023/03/31 09:07:15;;;;;;;28.60;12.93;;;;;;;3.88;100.00;97728.81;5137780;28;20130;-71
2023/03/31 09:09:51;;;;;;;26.15;11.77;;;;;;;4.09;100.00;97801.69;5137709;28;20150;-64
2023/03/31 09:12:22;;;;;;;22.40;10.43;;;;;;;4.37;100.00;97796.06;5137585;28;20138;-70
2023/03/31 09:14:53;;;;;;;27.98;14.00;;;;;;;4.57;100.00;97853.84;5137601;28;20130;-69
2023/03/31 09:17:24;;;;;;;18.65;7.07;;;;;;;4.86;100.00;97792.72;5137530;28;20404;-63
2023/03/31 09:19:55;;;;;;;21.00;9.43;;;;;;;3.95;100.00;97725.47;5138107;28;20055;-69
2023/03/31 09:22:25;;;;;;;29.33;13.00;;;;;;;4.38;100.00;97873.63;5137511;28;20057;-71
2023/03/31 09:24:58;;;;;;;16.58;6.70;;;;;;;4.13;100.00;97856.81;5137694;28;20203;-65
2023/03/31 09:27:27;;;;;;;25.58;10.98;;;;;;;4.27;100.00;97893.53;5137410;28;20051;-63
2023/03/31 09:29:56;;;;;;;14.13;6.88;;;;;;;4.16;100.00;97839.03;5137161;28;20070;-68
2023/03/31 09:32:27;;;;;;;13.57;6.15;;;;;;;4.25;100.00;97889.22;5137314;28;20047;-67
2023/03/31 09:34:56;;;;;;;10.50;5.57;;;;;;;4.74;100.00;97893.38;5136997;27;20074;-65
2023/03/31 09:37:26;;;;;;;11.70;5.60;;;;;;;4.21;100.00;97868.59;5137368;28;20092;-64
2023/03/31 09:39:52;;;;;;;8.93;6.15;;;;;;;4.60;100.00;97895.75;5137284;28;20211;-62
2023/03/31 09:42:18;;;;;;;10.98;5.63;;;;;;;4.44;100.00;97895.84;5137534;28;20050;-67
2023/03/31 09:44:48;;;;;;;7.95;5.28;;;;;;;4.14;100.00;97890.13;5136951;28;20146;-71
2023/03/31 09:47:20;;;;;;;8.90;5.13;;;;;;;4.07;100.00;97939.59;5137509;28;20047;-65
2023/03/31 09:49:47;;;;;;;14.35;5.47;;;;;;;4.13;100.00;97931.94;5137201;28;20051;-70
2023/03/31 09:52:22;;;;;;;10.52;5.35;;;;;;;3.60;100.00;97937.66;5137359;28;20142;-65
2023/03/31 09:54:50;;;;;;;11.32;5.18;;;;;;;3.99;100.00;98021.88;5137141;28;20138;-72
2023/03/31 09:57:24;;;;;;;6.80;4.85;;;;;;;4.07;100.00;98015.53;5137315;28;20120;-68
2023/03/31 09:59:51;;;;;;;7.57;5.10;;;;;;;4.22;100.00;98038.34;5137175;28;20051;-63
2023/03/31 10:02:33;;;;;;;11.93;5.60;;;;;;;3.99;100.00;98041.66;5136823;28;20051;-70
2023/03/31 10:04:59;;;;;;;12.63;5.63;;;;;;;4.47;100.00;98050.59;5137225;27;20309;-63
2023/03/31 10:07:25;;;;;;;15.30;5.57;;;;;;;4.14;100.00;98047.47;5139850;28;20073;-71
2023/03/31 10:09:53;;;;;;;16.55;6.05;;;;;;;3.83;100.00;98070.66;5140226;28;20172;-64
2023/03/31 10:12:23;;;;;;;13.60;6.13;;;;;;;4.15;100.00;98108.69;5140582;28;20129;-73
2023/03/31 10:14:51;;;;;;;13.55;5.35;;;;;;;3.68;100.00;98141.91;5140666;28;20127;-71
2023/03/31 10:17:19;;;;;;;10.68;5.20;;;;;;;3.85;100.00;98157.09;5140886;28;20089;-68
2023/03/31 10:19:50;;;;;;;11.40;5.90;;;;;;;3.86;100.00;98166.78;5140640;28;20087;-69
2023/03/31 10:22:27;;;;;;;9.75;4.85;;;;;;;3.54;100.00;98164.75;5140564;28;20274;-64
2023/03/31 10:24:53;;;;;;;8.60;4.55;;;;;;;3.46;100.00;98162.16;5140057;28;20107;-68
2023/03/31 10:27:23;;;;;;;13.32;5.38;;;;;;;3.40;100.00;98164.34;5140603;28;20054;-70
2023/03/31 10:29:52;;;;;;;13.32;5.97;;;;;;;3.68;100.00;98158.16;5140198;28;20051;-71
2023/03/31 10:32:23;;;;;;;9.95;5.95;;;;;;;3.43;100.00;98138.47;5140569;28;20047;-63
2023/03/31 10:34:49;;;;;;;10.43;5.93;;;;;;;3.56;100.00;98120.25;5140053;27;20417;-68
2023/03/31 10:37:18;;;;;;;13.43;5.90;;;;;;;3.70;100.00;98121.47;5140033;28;20055;-67
2023/03/31 10:39:46;;;;;;;12.05;6.00;;;;;;;3.90;100.00;98111.56;5140236;28;20093;-71
2023/03/31 10:42:19;;;;;;;10.25;5.70;;;;;;;3.58;100.00;98116.06;5139987;28;20066;-65
2023/03/31 10:44:45;;;;;;;12.37;6.67;;;;;;;3.62;100.00;98118.88;5141195;28;20055;-71
2023/03/31 10:47:20;;;;;;;11.68;5.88;;;;;;;3.43;100.00;98119.50;5145146;28;20115;-73
2023/03/31 10:49:50;;;;;;;13.60;6.38;;;;;;;3.76;100.00;98101.06;5142104;28;20082;-69
2023/03/31 10:52:20;;;;;;;18.60;7.22;;;;;;;3.69;100.00;98108.22;5139912;28;20440;-65
2023/03/31 10:54:47;;;;;;;15.55;7.95;;;;;;;3.54;100.00;98096.22;5139700;28;20088;-69
2023/03/31 10:57:15;;;;;;;13.43;6.68;;;;;;;3.95;100.00;98102.38;5139994;28;20050;-71
2023/03/31 11:00:04;;;;;;;15.20;8.25;;;;;;;3.77;100.00;98110.03;5139935;28;20047;-70
2023/03/31 11:03:07;;;;;;;15.80;6.97;;;;;;;3.61;100.00;98101.06;5139737;28;20046;-64
2023/03/31 11:05:42;;;;;;;17.15;6.93;;;;;;;3.82;100.00;98079.16;5086807;28;20093;-70
2023/03/31 11:08:25;;;;;;;9.35;5.95;;;;;;;3.50;100.00;98085.28;5140097;28;20172;-63
2023/03/31 11:11:03;;;;;;;12.50;6.35;;;;;;;3.48;100.00;98068.56;5139614;28;20050;-66
2023/03/31 11:13:38;;;;;;;20.02;6.45;;;;;;;3.47;100.00;98048.03;5139507;28;20138;-69
2023/03/31 11:16:13;;;;;;;16.15;6.43;;;;;;;3.06;100.00;98035.63;5139409;28;20142;-69
2023/03/31 11:18:55;;;;;;;13.50;7.22;;;;;;;2.96;100.00;97998.97;5138380;27;20051;-69
2023/03/31 11:21:27;;;;;;;15.68;8.45;;;;;;;3.18;100.00;97956.28;5139841;28;20081;-63
2023/03/31 11:24:05;;;;;;;22.92;9.48;;;;;;;3.54;100.00;97941.75;5139528;28;20134;-64
2023/03/31 11:26:43;;;;;;;19.17;10.50;;;;;;;3.42;100.00;97947.25;5139499;28;20363;-66
2023/03/31 11:29:30;;;;;;;20.40;9.38;;;;;;;3.22;100.00;97940.91;5139426;28;20146;-66
2023/03/31 11:32:08;;;;;;;24.70;10.77;;;;;;;3.08;100.00;97921.56;5139063;28;20055;-64
2023/03/31 11:34:49;;;;;;;18.60;9.68;;;;;;;2.98;100.00;97903.91;5139147;27;20055;-62
2023/03/31 11:37:30;;;;;;;19.73;10.88;;;;;;;3.13;100.00;97872.56;5138801;28;20051;-64
2023/03/31 11:40:18;;;;;;;20.08;11.95;;;;;;;3.28;100.00;97853.63;5136912;28;20424;-62
2023/03/31 11:42:49;;;;;;;26.08;12.05;;;;;;;3.34;100.00;97853.38;5124769;28;20047;-64